createdAt,value
2018-03-15T19:18:33.611Z,24.60
2018-03-15T19:20:59.693Z,23.67
2018-03-15T19:23:25.797Z,24.03
2018-03-15T19:25:52.748Z,24.03
2018-03-15T19:28:18.825Z,24.67
2018-03-15T19:30:44.956Z,20.90
2018-03-15T19:33:11.058Z,25.77
2018-03-15T19:35:37.244Z,22.63
2018-03-15T19:38:04.080Z,24.47
2018-03-15T19:40:30.945Z,26.03
2018-03-15T19:42:57.060Z,25.40
2018-03-15T19:45:23.185Z,27.87
2018-03-15T19:47:49.294Z,24.13
2018-03-15T19:50:16.147Z,26.50
2018-03-15T19:52:42.989Z,28.10
2018-03-15T19:55:09.846Z,27.00
2018-03-15T19:57:35.973Z,28.23
2018-03-15T20:00:02.118Z,26.00
2018-03-15T20:02:28.263Z,28.33
2018-03-15T20:04:54.465Z,24.10
2018-03-15T20:07:20.616Z,26.33
2018-03-15T20:09:46.748Z,25.17
2018-03-15T20:12:12.888Z,22.03
2018-03-15T20:14:38.970Z,23.77
2018-03-15T20:17:05.039Z,19.70
2018-03-15T20:19:31.168Z,22.10
2018-03-15T20:21:57.276Z,20.47
2018-03-15T20:24:29.345Z,20.13
2018-03-15T20:26:55.420Z,19.63
2018-03-15T20:29:21.504Z,20.27
2018-03-15T20:31:47.614Z,20.90
2018-03-15T20:34:13.712Z,21.40
2018-03-15T20:36:39.915Z,19.90
2018-03-15T20:39:12.784Z,20.30
2018-03-15T20:41:38.869Z,22.83
2018-03-15T20:44:06.051Z,21.27
2018-03-15T20:46:38.205Z,20.97
2018-03-15T20:49:06.325Z,18.53
2018-03-15T20:51:32.419Z,19.23
2018-03-15T20:53:58.532Z,19.20
2018-03-15T20:56:24.643Z,20.80
2018-03-15T20:58:50.782Z,20.07
2018-03-15T21:01:16.912Z,21.47
2018-03-15T21:03:43.008Z,20.13
2018-03-15T21:06:09.113Z,21.97
2018-03-15T21:08:35.180Z,23.00
2018-03-15T21:11:01.310Z,19.07
2018-03-15T21:13:27.389Z,20.67
2018-03-15T21:15:53.508Z,21.20
2018-03-15T21:18:22.451Z,17.17
2018-03-15T21:20:48.556Z,19.27
2018-03-15T21:23:14.598Z,22.25
2018-03-15T21:25:40.661Z,18.93
2018-03-15T21:28:07.432Z,17.63
2018-03-15T21:30:33.493Z,17.17
2018-03-15T21:32:59.560Z,16.43
2018-03-15T21:35:25.612Z,19.43
2018-03-15T21:37:51.681Z,18.87
2018-03-15T21:40:17.731Z,17.10
2018-03-15T21:42:43.759Z,18.67
2018-03-15T21:45:09.837Z,18.03
2018-03-15T21:47:35.885Z,20.87
2018-03-15T21:50:02.708Z,18.90
2018-03-15T21:52:28.783Z,21.67
2018-03-15T21:54:59.992Z,20.17
2018-03-15T21:57:26.154Z,19.77
2018-03-15T21:59:52.320Z,21.03
2018-03-15T22:02:18.423Z,17.03
2018-03-15T22:04:44.537Z,18.80
2018-03-15T22:07:10.637Z,13.47
2018-03-15T22:09:36.747Z,14.27
2018-03-15T22:12:02.891Z,11.53
2018-03-15T22:14:29.718Z,12.83
2018-03-15T22:16:56.552Z,11.53
2018-03-15T22:19:22.630Z,11.83
2018-03-15T22:21:48.740Z,8.70
2018-03-15T22:24:14.854Z,10.20
2018-03-15T22:26:41.726Z,10.17
2018-03-15T22:29:07.845Z,8.03
2018-03-15T22:31:33.973Z,7.60
2018-03-15T22:34:00.095Z,8.60
2018-03-15T22:36:26.229Z,7.93
2018-03-15T22:38:52.367Z,7.37
2018-03-15T22:41:18.493Z,7.63
2018-03-15T22:43:44.597Z,6.53
2018-03-15T22:48:43.691Z,6.30
2018-03-15T22:51:09.861Z,6.77
2018-03-15T22:53:36.014Z,6.17
2018-03-15T22:56:02.226Z,6.13
2018-03-15T22:58:28.397Z,6.33
2018-03-15T23:00:55.388Z,6.27
2018-03-15T23:03:21.544Z,6.27
2018-03-15T23:05:47.697Z,5.70
2018-03-15T23:08:14.642Z,6.33
2018-03-15T23:10:40.883Z,5.70
2018-03-15T23:13:07.745Z,6.30
2018-03-15T23:15:33.904Z,6.60
2018-03-15T23:18:00.129Z,6.80
2018-03-15T23:20:26.356Z,6.00
2018-03-15T23:22:52.469Z,6.70
2018-03-15T23:25:18.564Z,5.77
2018-03-15T23:27:44.726Z,5.83
2018-03-15T23:30:10.877Z,5.87
2018-03-15T23:32:37.005Z,6.03
2018-03-15T23:35:03.900Z,8.30
2018-03-15T23:37:30.757Z,6.30
2018-03-15T23:39:56.852Z,6.33
2018-03-15T23:42:23.008Z,6.20
2018-03-15T23:44:49.115Z,6.50
2018-03-15T23:47:15.256Z,6.40
2018-03-15T23:49:41.381Z,6.47
2018-03-15T23:52:07.493Z,7.03
2018-03-15T23:54:33.666Z,6.57
2018-03-15T23:56:59.774Z,6.83
2018-03-15T23:59:25.968Z,6.73
